createdAt,value
2022-11-05T00:00:52.871Z,9.71
2022-11-05T00:03:39.324Z,9.68
2022-11-05T00:06:30.111Z,9.70
2022-11-05T00:09:17.234Z,9.71
2022-11-05T00:12:04.259Z,9.69
2022-11-05T00:14:51.458Z,9.67
2022-11-05T00:17:19.426Z,9.65
2022-11-05T00:19:47.288Z,9.65
2022-11-05T00:22:33.586Z,9.63
2022-11-05T00:25:19.787Z,9.63
2022-11-05T00:27:50.340Z,9.65
2022-11-05T00:30:21.180Z,9.60
2022-11-05T00:32:51.085Z,9.57
2022-11-05T00:35:22.161Z,9.53
2022-11-05T00:37:50.684Z,9.52
2022-11-05T00:40:18.688Z,9.52
2022-11-05T00:43:05.779Z,9.52
2022-11-05T00:45:34.027Z,9.51
2022-11-05T00:48:20.191Z,9.52
2022-11-05T00:50:48.086Z,9.54
2022-11-05T00:53:16.146Z,9.56
2022-11-05T00:55:46.615Z,9.56
2022-11-05T00:58:17.226Z,9.55
2022-11-05T05:00:21.237Z,9.95
2022-11-05T05:02:49.634Z,9.96
2022-11-05T05:05:17.129Z,9.97
2022-11-05T05:07:44.703Z,10.00
2022-11-05T05:10:12.263Z,9.97
2022-11-05T05:12:39.968Z,9.97
2022-11-05T05:15:10.995Z,9.96
2022-11-05T05:17:38.768Z,9.95
2022-11-05T05:20:25.548Z,9.99
2022-11-05T05:22:56.401Z,10.01
2022-11-05T05:25:24.690Z,9.97
2022-11-05T05:27:53.098Z,9.95
2022-11-05T05:30:21.083Z,9.95
2022-11-05T05:32:50.720Z,9.96
2022-11-05T05:35:18.396Z,9.96
2022-11-05T05:37:46.146Z,9.96
2022-11-05T05:40:13.541Z,9.96
2022-11-05T05:42:43.381Z,9.97
2022-11-05T05:45:12.928Z,9.98
2022-11-05T05:47:40.782Z,9.99
2022-11-05T05:50:09.069Z,9.98
2022-11-05T05:52:36.769Z,9.97
2022-11-05T05:55:04.585Z,10.01
2022-11-05T05:57:32.139Z,10.04
2022-11-05T06:00:02.292Z,10.01
2022-11-05T06:02:40.098Z,10.00
2022-11-05T06:05:08.366Z,10.02
2022-11-05T06:07:37.435Z,10.06
2022-11-05T06:10:06.737Z,10.07
2022-11-05T06:12:34.834Z,10.10
2022-11-05T06:15:02.841Z,10.14
2022-11-05T06:17:30.961Z,10.18
2022-11-05T06:19:59.076Z,10.21
2022-11-05T06:22:27.419Z,10.26
2022-11-05T06:24:55.689Z,10.29
2022-11-05T06:27:23.066Z,10.31
2022-11-05T06:29:51.001Z,10.34
2022-11-05T06:32:19.231Z,10.35
2022-11-05T06:34:47.177Z,10.34
2022-11-05T06:37:15.355Z,10.36
2022-11-05T06:39:43.527Z,10.34
2022-11-05T06:42:18.342Z,10.34
2022-11-05T06:44:46.896Z,10.37
2022-11-05T06:47:15.010Z,10.36
2022-11-05T06:49:42.148Z,10.38
2022-11-05T06:52:09.998Z,10.39
2022-11-05T06:54:37.909Z,10.40
2022-11-05T06:57:06.837Z,10.40
2022-11-05T06:59:34.640Z,10.41
2022-11-05T07:02:02.280Z,10.43
2022-11-05T07:04:30.159Z,10.43
2022-11-05T07:07:01.422Z,10.45
2022-11-05T07:09:29.970Z,10.50
2022-11-05T07:11:57.865Z,10.52
2022-11-05T07:14:25.694Z,10.52
2022-11-05T07:16:53.187Z,10.53
2022-11-05T07:19:21.601Z,10.54
2022-11-05T07:21:51.357Z,10.58
2022-11-05T07:24:18.855Z,10.61
2022-11-05T07:26:46.583Z,10.61
2022-11-05T07:29:17.119Z,10.66
2022-11-05T07:31:44.336Z,10.70
2022-11-05T07:34:12.284Z,10.72
2022-11-05T07:36:40.811Z,10.70
2022-11-05T07:39:08.787Z,10.71
2022-11-05T07:41:37.097Z,10.70
2022-11-05T07:44:05.898Z,10.72
2022-11-05T07:46:33.798Z,10.71
2022-11-05T07:49:01.150Z,10.75
2022-11-05T07:51:28.474Z,10.81
2022-11-05T07:53:55.970Z,10.85
2022-11-05T07:56:23.730Z,10.90
2022-11-05T07:58:51.288Z,10.95
2022-11-05T08:01:18.754Z,10.98
2022-11-05T08:03:46.605Z,11.03
2022-11-05T08:06:14.561Z,11.05
2022-11-05T08:08:42.025Z,11.03
2022-11-05T08:11:11.246Z,11.04
2022-11-05T08:13:39.513Z,11.08
2022-11-05T08:16:08.481Z,11.06
2022-11-05T08:18:36.460Z,11.03
2022-11-05T08:21:06.118Z,11.07
2022-11-05T08:23:34.445Z,11.16
2022-11-05T08:26:04.350Z,11.21
2022-11-05T08:28:32.312Z,11.23
2022-11-05T08:30:59.571Z,11.27
2022-11-05T08:33:27.787Z,11.29
2022-11-05T08:35:55.428Z,11.27
2022-11-05T08:38:23.263Z,11.28
2022-11-05T08:40:56.445Z,11.29
2022-11-05T08:43:25.848Z,11.32
2022-11-05T08:45:55.307Z,11.32
2022-11-05T08:48:23.361Z,11.36
2022-11-05T08:50:51.727Z,11.43
2022-11-05T08:53:19.533Z,11.49
2022-11-05T08:55:48.606Z,11.52
2022-11-05T08:58:17.301Z,11.55
2022-11-05T09:00:46.653Z,11.56
2022-11-05T09:03:15.582Z,11.56
2022-11-05T09:05:43.840Z,11.57
2022-11-05T09:08:13.751Z,11.58
2022-11-05T09:10:43.264Z,11.60
2022-11-05T09:13:17.797Z,11.62
2022-11-05T09:15:51.439Z,11.67
2022-11-05T09:18:20.739Z,11.69
2022-11-05T09:20:48.702Z,11.66
2022-11-05T09:23:16.591Z,11.68
2022-11-05T09:25:44.888Z,11.70
2022-11-05T09:28:17.040Z,11.72
2022-11-05T09:30:48.061Z,11.75
2022-11-05T09:33:17.702Z,11.75
2022-11-05T09:35:46.084Z,11.77
2022-11-05T09:38:14.516Z,11.73
2022-11-05T09:40:49.976Z,11.70
2022-11-05T09:43:26.112Z,11.73
2022-11-05T09:46:01.002Z,11.74
2022-11-05T09:48:34.136Z,11.78
2022-11-05T09:51:02.209Z,11.78
2022-11-05T09:53:29.950Z,11.77
2022-11-05T09:56:00.881Z,11.79
2022-11-05T09:58:57.007Z,11.75
2022-11-05T10:01:36.354Z,11.70
2022-11-05T10:04:17.501Z,11.70
2022-11-05T10:07:06.401Z,11.73
2022-11-05T10:09:47.115Z,11.75
2022-11-05T10:12:29.577Z,11.79
2022-11-05T10:15:06.221Z,11.84
2022-11-05T10:17:39.183Z,11.90
2022-11-05T10:20:16.064Z,11.95
2022-11-05T10:22:49.139Z,12.00
2022-11-05T10:25:20.119Z,11.98
2022-11-05T10:27:58.423Z,11.99
2022-11-05T10:30:25.650Z,11.99
2022-11-05T10:32:59.173Z,11.98
2022-11-05T10:35:31.075Z,11.99
2022-11-05T10:37:58.529Z,11.98
2022-11-05T10:40:42.678Z,11.96
2022-11-05T10:43:35.882Z,11.97
2022-11-05T10:46:36.553Z,12.00
2022-11-05T10:49:23.187Z,11.99
2022-11-05T10:51:56.378Z,12.00
2022-11-05T10:54:30.508Z,12.00
2022-11-05T10:56:58.049Z,12.02
2022-11-05T10:59:28.798Z,12.03
2022-11-05T11:02:09.245Z,12.01
2022-11-05T11:04:38.240Z,12.00
2022-11-05T11:07:06.136Z,12.00
2022-11-05T11:09:37.308Z,11.98
2022-11-05T11:12:09.356Z,12.01
2022-11-05T11:14:39.136Z,12.00
2022-11-05T11:17:24.982Z,12.02
2022-11-05T11:20:21.005Z,12.07
2022-11-05T11:23:14.521Z,12.11
2022-11-05T11:26:01.819Z,12.14
2022-11-05T11:28:51.334Z,12.17
2022-11-05T11:31:24.301Z,12.25
2022-11-05T11:34:21.190Z,12.30
2022-11-05T11:36:53.960Z,12.36
2022-11-05T11:39:30.863Z,12.41
2022-11-05T11:42:02.657Z,12.36
2022-11-05T11:44:35.628Z,12.31
2022-11-05T11:47:09.841Z,12.31
2022-11-05T11:49:36.981Z,12.29
2022-11-05T11:52:11.563Z,12.26
2022-11-05T11:54:38.810Z,12.25
2022-11-05T11:57:27.707Z,12.24
2022-11-05T12:00:12.885Z,12.18
2022-11-05T12:02:46.267Z,12.15
2022-11-05T12:05:33.066Z,12.07
2022-11-05T12:08:18.370Z,12.03
2022-11-05T12:11:09.222Z,11.99
2022-11-05T12:13:36.372Z,11.92
2022-11-05T12:16:29.864Z,11.90
2022-11-05T12:19:35.367Z,11.84
2022-11-05T12:22:27.236Z,11.81
2022-11-05T12:25:10.687Z,11.76
2022-11-05T12:27:56.344Z,11.72
2022-11-05T12:30:24.340Z,11.64
2022-11-05T12:33:13.868Z,11.61
2022-11-05T12:36:05.227Z,11.59
2022-11-05T12:38:46.253Z,11.60
2022-11-05T12:42:01.437Z,11.62
2022-11-05T12:45:23.748Z,11.60
2022-11-05T12:48:09.359Z,11.58
2022-11-05T12:50:53.075Z,11.53
2022-11-05T12:53:38.933Z,11.52
2022-11-05T12:56:28.509Z,11.53
2022-11-05T12:59:09.795Z,11.54
2022-11-05T13:01:43.919Z,11.52
2022-11-05T13:04:23.888Z,11.52
2022-11-05T13:06:55.497Z,11.48
2022-11-05T13:09:32.744Z,11.46
2022-11-05T13:12:08.081Z,11.48
2022-11-05T13:14:52.305Z,11.50
2022-11-05T13:17:28.638Z,11.52
2022-11-05T13:19:55.983Z,11.55
2022-11-05T13:22:42.488Z,11.57
2022-11-05T13:25:20.232Z,11.57
2022-11-05T13:27:53.598Z,11.59
2022-11-05T13:30:34.268Z,11.58
2022-11-05T13:33:12.047Z,11.55
2022-11-05T13:36:23.524Z,11.53
2022-11-05T13:39:12.316Z,11.55
2022-11-05T13:41:51.791Z,11.62
2022-11-05T13:44:51.449Z,11.64
2022-11-05T13:47:49.931Z,11.62
2022-11-05T13:50:29.159Z,11.66
2022-11-05T13:53:21.683Z,11.64
2022-11-05T13:55:52.447Z,11.62
2022-11-05T13:58:22.778Z,11.57
2022-11-05T14:01:12.722Z,11.56
2022-11-05T14:03:48.798Z,11.54
2022-11-05T14:06:26.408Z,11.51
2022-11-05T14:08:59.108Z,11.45
2022-11-05T14:11:33.067Z,11.41
2022-11-05T14:14:08.298Z,11.38
2022-11-05T14:16:51.111Z,11.37
2022-11-05T14:19:18.672Z,11.36
2022-11-05T14:21:53.093Z,11.36
2022-11-05T14:24:23.473Z,11.36
2022-11-05T14:27:03.333Z,11.31
2022-11-05T14:29:38.827Z,11.30
2022-11-05T14:32:21.390Z,11.30
2022-11-05T14:35:04.838Z,11.25
2022-11-05T14:37:53.689Z,11.23
2022-11-05T14:40:34.052Z,11.31
2022-11-05T14:43:15.807Z,11.30
2022-11-05T14:45:56.732Z,11.31
2022-11-05T14:48:45.044Z,11.29
2022-11-05T14:51:27.917Z,11.26
2022-11-05T14:54:22.519Z,11.22
2022-11-05T14:56:59.464Z,11.18
2022-11-05T14:59:31.845Z,11.19
2022-11-05T15:02:11.295Z,11.19
2022-11-05T15:04:45.770Z,11.20
2022-11-05T15:07:33.692Z,11.21
2022-11-05T15:10:10.828Z,11.23
2022-11-05T15:12:45.177Z,11.23
2022-11-05T15:15:22.270Z,11.20
2022-11-05T15:18:05.437Z,11.19
2022-11-05T15:20:46.889Z,11.19
2022-11-05T15:23:22.490Z,11.18
2022-11-05T15:26:11.990Z,11.14
2022-11-05T15:28:54.571Z,11.07
2022-11-05T15:31:29.497Z,11.01
2022-11-05T15:34:18.572Z,10.96
2022-11-05T15:36:56.634Z,10.95
2022-11-05T15:39:34.128Z,10.94
2022-11-05T15:42:05.389Z,10.92
2022-11-05T15:44:39.494Z,10.89
2022-11-05T15:47:14.164Z,10.84
2022-11-05T15:49:48.983Z,10.83
2022-11-05T15:52:19.647Z,10.84
2022-11-05T15:55:07.120Z,10.90
2022-11-05T15:57:40.108Z,10.99
2022-11-05T16:00:16.489Z,11.07
2022-11-05T16:02:56.895Z,11.08
2022-11-05T16:05:27.702Z,11.04
2022-11-05T16:08:00.173Z,11.03
2022-11-05T16:10:40.414Z,11.04
2022-11-05T16:13:33.498Z,11.03
2022-11-05T16:16:07.341Z,10.98
2022-11-05T16:18:40.259Z,10.94
2022-11-05T16:21:08.716Z,10.91
2022-11-05T16:23:47.326Z,10.90
2022-11-05T16:27:02.160Z,10.98
2022-11-05T16:29:38.090Z,11.07
2022-11-05T16:32:15.698Z,11.12
2022-11-05T16:34:48.634Z,11.11
2022-11-05T16:37:22.248Z,11.11
2022-11-05T16:39:49.598Z,11.12
2022-11-05T16:42:23.774Z,11.08
2022-11-05T16:44:53.552Z,11.11
2022-11-05T16:47:22.916Z,11.09
2022-11-05T16:49:54.919Z,11.08
2022-11-05T16:52:23.308Z,11.02
2022-11-05T16:54:51.535Z,10.96
2022-11-05T16:57:22.441Z,10.92
2022-11-05T16:59:50.221Z,10.92
2022-11-05T17:02:18.155Z,10.94
2022-11-05T17:04:45.963Z,10.93
2022-11-05T17:07:13.530Z,10.96
2022-11-05T17:09:41.202Z,11.01
2022-11-05T17:12:10.372Z,11.00
2022-11-05T17:14:39.513Z,10.96
2022-11-05T17:17:08.308Z,10.92
2022-11-05T17:19:36.186Z,10.94
2022-11-05T17:22:04.461Z,10.94
2022-11-05T17:24:32.203Z,10.92
2022-11-05T17:27:00.111Z,10.93
2022-11-05T17:29:27.545Z,10.94
2022-11-05T17:31:56.071Z,10.95
2022-11-05T17:34:24.405Z,10.97
2022-11-05T17:36:52.486Z,10.99
2022-11-05T17:39:20.532Z,10.98
2022-11-05T17:41:49.428Z,10.95
2022-11-05T17:44:17.230Z,10.95
2022-11-05T17:46:45.713Z,10.93
2022-11-05T17:49:13.625Z,10.93
2022-11-05T17:51:41.396Z,10.95
2022-11-05T17:54:09.696Z,10.92
2022-11-05T17:56:44.477Z,10.92
2022-11-05T17:59:13.047Z,10.91
2022-11-05T18:01:43.783Z,10.90
2022-11-05T18:04:12.379Z,10.90
2022-11-05T18:06:41.911Z,10.90
2022-11-05T18:09:11.235Z,10.93
2022-11-05T18:11:40.636Z,10.89
2022-11-05T18:14:10.301Z,10.86
2022-11-05T18:16:38.935Z,10.87
2022-11-05T18:19:07.383Z,10.88
2022-11-05T18:21:35.683Z,10.85
2022-11-05T18:24:05.880Z,10.86
2022-11-05T18:26:37.625Z,10.89
2022-11-05T18:29:07.784Z,10.90
2022-11-05T18:31:35.319Z,10.93
2022-11-05T18:34:03.421Z,10.93
2022-11-05T18:36:33.626Z,10.96
2022-11-05T18:39:04.471Z,10.96
2022-11-05T18:41:32.848Z,10.99
2022-11-05T18:44:03.580Z,11.00
2022-11-05T18:49:21.506Z,10.93
2022-11-05T18:51:49.793Z,10.87
2022-11-05T18:54:17.675Z,10.82
2022-11-05T18:56:45.998Z,10.85
2022-11-05T18:59:36.000Z,10.92
2022-11-05T19:02:05.945Z,10.93
2022-11-05T19:04:36.636Z,10.92
2022-11-05T19:07:05.682Z,10.93
2022-11-05T19:09:36.248Z,10.93
2022-11-05T19:12:04.538Z,10.89
2022-11-05T19:14:32.938Z,10.87
2022-11-05T19:17:02.661Z,10.90
2022-11-05T19:19:31.009Z,10.90
2022-11-05T19:21:59.891Z,10.88
2022-11-05T19:24:28.344Z,10.88
2022-11-05T19:26:56.779Z,10.89
2022-11-05T19:29:24.853Z,10.87
2022-11-05T19:31:52.724Z,10.84
2022-11-05T19:34:21.407Z,10.82
2022-11-05T19:36:49.328Z,10.80
2022-11-05T19:39:17.595Z,10.80
2022-11-05T19:41:46.682Z,10.78
2022-11-05T19:44:14.100Z,10.78
2022-11-05T19:46:41.895Z,10.73
2022-11-05T19:49:09.734Z,10.71
2022-11-05T19:51:38.354Z,10.70
2022-11-05T19:54:08.049Z,10.68
2022-11-05T19:56:38.974Z,10.66
2022-11-05T19:59:07.540Z,10.64
2022-11-05T20:01:35.670Z,10.62
2022-11-05T20:04:03.739Z,10.60
2022-11-05T20:06:41.207Z,10.58
2022-11-05T20:09:21.787Z,10.55
2022-11-05T20:11:54.960Z,10.51
2022-11-05T20:14:25.167Z,10.48
2022-11-05T20:16:53.209Z,10.46
2022-11-05T20:19:22.775Z,10.42
2022-11-05T20:21:50.658Z,10.40
2022-11-05T20:24:24.230Z,10.37
2022-11-05T20:26:57.045Z,10.33
2022-11-05T20:29:33.667Z,10.30
2022-11-05T20:32:04.293Z,10.27
2022-11-05T20:34:32.968Z,10.23
2022-11-05T20:37:01.567Z,10.17
2022-11-05T20:39:29.327Z,10.13
2022-11-05T20:41:57.172Z,10.10
2022-11-05T20:44:25.417Z,10.08
2022-11-05T20:46:53.549Z,10.06
2022-11-05T20:49:25.398Z,10.06
2022-11-05T20:51:54.464Z,10.04
2022-11-05T20:54:24.151Z,10.03
2022-11-05T20:56:52.131Z,10.03
2022-11-05T20:59:20.590Z,9.98
2022-11-05T21:01:50.532Z,9.96
2022-11-05T21:04:18.691Z,9.93
2022-11-05T21:06:46.031Z,9.92
2022-11-05T21:09:14.220Z,9.93
2022-11-05T21:12:00.240Z,9.90
2022-11-05T21:14:27.589Z,9.86
2022-11-05T21:16:55.461Z,9.80
2022-11-05T21:19:24.527Z,9.76
2022-11-05T21:21:52.459Z,9.68
2022-11-05T21:24:20.466Z,9.66
2022-11-05T21:26:50.352Z,9.62
2022-11-05T21:29:19.859Z,9.58
2022-11-05T21:31:47.971Z,9.53
2022-11-05T21:34:17.320Z,9.48
2022-11-05T21:36:46.247Z,9.45
2022-11-05T21:39:14.546Z,9.44
2022-11-05T21:41:43.356Z,9.42
2022-11-05T21:44:11.717Z,9.40
2022-11-05T21:46:40.066Z,9.38
2022-11-05T21:49:07.781Z,9.30
2022-11-05T21:51:54.071Z,9.25
2022-11-05T21:54:40.011Z,9.19
2022-11-05T21:57:35.156Z,9.13
2022-11-05T22:00:06.171Z,9.08
2022-11-05T22:02:33.936Z,9.03
2022-11-05T22:05:06.049Z,9.01
2022-11-05T22:07:39.196Z,8.97
2022-11-05T22:10:14.869Z,8.92
2022-11-05T22:12:46.207Z,8.88
2022-11-05T22:15:21.265Z,8.86
2022-11-05T22:17:52.204Z,8.82
2022-11-05T22:20:20.382Z,8.77
2022-11-05T22:22:47.629Z,8.76
2022-11-05T22:25:15.917Z,8.74
2022-11-05T22:27:44.626Z,8.72
2022-11-05T22:30:13.769Z,8.68
2022-11-05T22:32:41.228Z,8.66
2022-11-05T22:35:09.017Z,8.60
2022-11-05T22:37:36.758Z,8.56
2022-11-05T22:40:04.991Z,8.51
2022-11-05T22:42:32.753Z,8.46
2022-11-05T22:45:00.074Z,8.43
2022-11-05T22:47:27.797Z,8.38
2022-11-05T22:49:55.059Z,8.34
2022-11-05T22:52:23.040Z,8.29
2022-11-05T22:54:50.529Z,8.24
2022-11-05T22:57:18.536Z,8.18
2022-11-05T22:59:46.273Z,8.10
2022-11-05T23:02:13.828Z,8.03
2022-11-05T23:04:42.245Z,7.98
2022-11-05T23:07:29.965Z,7.96
2022-11-05T23:10:16.506Z,7.93
2022-11-05T23:12:44.982Z,7.90
2022-11-05T23:15:32.826Z,7.85
2022-11-05T23:18:19.954Z,7.85
2022-11-05T23:21:05.918Z,7.82
2022-11-05T23:23:52.257Z,7.79
2022-11-05T23:26:38.685Z,7.76
2022-11-05T23:29:05.988Z,7.75
2022-11-05T23:31:52.969Z,7.71
2022-11-05T23:34:20.223Z,7.68
2022-11-05T23:37:06.754Z,7.65
2022-11-05T23:39:39.793Z,7.63
2022-11-05T23:42:29.861Z,7.59
2022-11-05T23:45:17.366Z,7.54
2022-11-05T23:48:03.813Z,7.49
2022-11-05T23:50:38.353Z,7.43
2022-11-05T23:53:08.956Z,7.35
2022-11-05T23:55:36.680Z,7.30
2022-11-05T23:58:04.570Z,7.28
